createdAt,value
2023-03-25T00:01:15.527Z,1.80
2023-03-25T00:03:43.411Z,1.65
2023-03-25T00:06:14.144Z,0.60
2023-03-25T00:08:43.345Z,1.45
2023-03-25T00:11:10.132Z,2.38
2023-03-25T00:13:37.494Z,1.05
2023-03-25T00:16:07.166Z,2.38
2023-03-25T00:18:34.896Z,1.63
2023-03-25T00:21:05.530Z,1.23
2023-03-25T00:23:35.236Z,2.15
2023-03-25T00:26:03.174Z,1.70
2023-03-25T00:28:33.439Z,1.25
2023-03-25T00:31:02.802Z,0.90
2023-03-25T00:33:31.764Z,1.23
2023-03-25T00:36:02.139Z,0.40
2023-03-25T00:38:37.924Z,2.20
2023-03-25T00:41:11.212Z,1.05
2023-03-25T00:43:38.362Z,2.17
2023-03-25T00:46:06.226Z,0.60
2023-03-25T00:48:33.496Z,2.25
2023-03-25T00:51:07.396Z,3.65
2023-03-25T00:53:35.362Z,3.15
2023-03-25T00:56:02.916Z,3.63
2023-03-25T00:58:30.249Z,1.17
2023-03-25T01:00:57.761Z,2.30
2023-03-25T01:03:25.930Z,3.00
2023-03-25T01:05:54.779Z,3.17
2023-03-25T01:08:25.827Z,1.85
2023-03-25T01:10:56.487Z,4.22
2023-03-25T01:13:24.232Z,2.85
2023-03-25T01:15:51.870Z,4.28
2023-03-25T01:18:19.233Z,1.80
2023-03-25T01:20:46.370Z,1.67
2023-03-25T01:23:13.742Z,3.35
2023-03-25T01:25:40.912Z,1.15
2023-03-25T01:28:08.122Z,0.88
2023-03-25T01:30:35.311Z,1.40
2023-03-25T01:33:05.092Z,2.45
2023-03-25T01:35:34.836Z,3.30
2023-03-25T01:38:02.070Z,1.13
2023-03-25T01:40:29.726Z,2.17
2023-03-25T01:42:57.080Z,2.53
2023-03-25T01:45:26.805Z,1.58
2023-03-25T01:47:58.388Z,1.45
2023-03-25T01:50:29.320Z,1.52
2023-03-25T01:52:57.756Z,2.47
2023-03-25T01:55:27.501Z,1.80
2023-03-25T01:57:55.595Z,1.50
2023-03-25T02:00:22.940Z,2.53
2023-03-25T02:02:50.940Z,4.40
2023-03-25T02:05:18.241Z,1.05
2023-03-25T02:07:47.883Z,2.05
2023-03-25T02:10:15.521Z,1.95
2023-03-25T02:12:45.509Z,3.15
2023-03-25T02:18:13.720Z,1.98
2023-03-25T02:21:02.926Z,4.88
2023-03-25T02:23:43.033Z,3.37
2023-03-25T02:26:29.867Z,2.05
2023-03-25T02:29:09.361Z,1.10
2023-03-25T02:31:55.050Z,6.70
2023-03-25T02:34:31.565Z,3.70
2023-03-25T02:37:17.605Z,2.42
2023-03-25T02:39:49.826Z,3.35
2023-03-25T02:42:35.745Z,1.98
2023-03-25T02:45:04.577Z,2.38
2023-03-25T02:47:35.385Z,1.83
2023-03-25T02:50:17.215Z,4.32
2023-03-25T02:52:50.139Z,2.95
2023-03-25T02:55:19.117Z,2.97
2023-03-25T02:57:47.553Z,2.20
2023-03-25T03:00:17.124Z,1.73
2023-03-25T03:03:00.077Z,1.13
2023-03-25T03:05:31.249Z,1.92
2023-03-25T03:08:05.282Z,2.05
2023-03-25T03:10:51.023Z,2.58
2023-03-25T03:13:26.140Z,2.58
2023-03-25T03:16:05.362Z,3.25
2023-03-25T03:18:42.268Z,2.75
2023-03-25T03:21:16.782Z,3.80
2023-03-25T03:23:56.413Z,3.42
2023-03-25T03:26:40.237Z,2.42
2023-03-25T03:29:18.857Z,2.58
2023-03-25T03:32:06.449Z,2.78
2023-03-25T03:34:44.770Z,3.63
2023-03-25T03:37:17.483Z,3.47
2023-03-25T03:39:47.046Z,4.82
2023-03-25T03:42:19.444Z,2.80
2023-03-25T03:44:51.893Z,2.88
2023-03-25T03:47:24.833Z,4.45
2023-03-25T03:49:59.117Z,3.38
2023-03-25T03:52:33.466Z,3.60
2023-03-25T03:55:32.616Z,1.50
2023-03-25T03:58:09.704Z,2.70
2023-03-25T04:00:42.175Z,8.25
2023-03-25T04:03:24.381Z,2.38
2023-03-25T04:05:59.770Z,3.25
2023-03-25T04:08:42.903Z,1.38
2023-03-25T04:11:19.716Z,2.22
2023-03-25T04:13:49.676Z,2.33
2023-03-25T04:18:47.797Z,1.75
2023-03-25T04:21:15.433Z,1.20
2023-03-25T04:23:42.269Z,2.10
2023-03-25T04:26:09.368Z,2.90
2023-03-25T04:28:36.790Z,2.38
2023-03-25T04:31:07.514Z,4.18
2023-03-25T04:33:35.984Z,3.45
2023-03-25T04:36:03.625Z,2.85
2023-03-25T04:38:32.782Z,2.65
2023-03-25T04:41:01.912Z,1.27
2023-03-25T04:43:28.564Z,1.07
2023-03-25T04:45:55.637Z,2.33
2023-03-25T04:48:29.997Z,2.13
2023-03-25T04:51:01.703Z,4.40
2023-03-25T04:53:29.388Z,2.72
2023-03-25T04:55:56.450Z,1.85
2023-03-25T04:58:23.412Z,1.38
2023-03-25T05:00:51.897Z,2.40
2023-03-25T05:03:24.468Z,4.60
2023-03-25T05:05:54.622Z,2.30
2023-03-25T05:08:24.164Z,1.00
2023-03-25T05:10:51.150Z,2.70
2023-03-25T05:13:20.898Z,2.17
2023-03-25T05:15:48.214Z,2.30
2023-03-25T05:18:16.434Z,3.20
2023-03-25T05:20:50.785Z,2.55
2023-03-25T05:23:22.021Z,1.02
2023-03-25T05:25:51.349Z,0.50
2023-03-25T05:28:19.251Z,1.17
2023-03-25T05:30:49.504Z,0.82
2023-03-25T05:33:19.406Z,1.13
2023-03-25T05:35:50.590Z,1.77
2023-03-25T05:38:18.442Z,0.47
2023-03-25T05:40:48.982Z,1.38
2023-03-25T05:43:22.795Z,1.40
2023-03-25T05:45:50.324Z,1.33
2023-03-25T05:48:18.068Z,3.05
2023-03-25T05:50:45.101Z,3.45
2023-03-25T05:53:18.035Z,3.95
2023-03-25T05:55:44.810Z,2.03
2023-03-25T05:58:13.896Z,0.98
2023-03-25T06:00:40.631Z,2.13
2023-03-25T06:03:11.046Z,3.72
2023-03-25T06:05:41.447Z,1.63
2023-03-25T06:08:11.228Z,3.88
2023-03-25T06:10:41.420Z,2.28
2023-03-25T06:13:08.342Z,3.38
2023-03-25T06:15:39.242Z,4.18
2023-03-25T06:18:06.251Z,3.05
2023-03-25T06:20:33.490Z,5.25
2023-03-25T06:23:02.763Z,3.13
2023-03-25T06:25:31.107Z,7.75
2023-03-25T06:28:04.029Z,3.25
2023-03-25T06:30:30.814Z,2.00
2023-03-25T06:33:02.816Z,3.13
2023-03-25T06:35:29.618Z,4.40
2023-03-25T06:37:56.355Z,4.00
2023-03-25T06:40:24.147Z,4.30
2023-03-25T06:42:53.556Z,4.70
2023-03-25T06:45:20.492Z,3.10
2023-03-25T06:47:47.387Z,2.42
2023-03-25T06:50:14.320Z,4.68
2023-03-25T06:52:41.204Z,3.45
2023-03-25T06:55:08.253Z,2.75
2023-03-25T06:57:37.897Z,3.95
2023-03-25T07:00:06.345Z,1.80
2023-03-25T07:02:33.085Z,3.72
2023-03-25T07:05:00.022Z,1.88
2023-03-25T07:07:26.892Z,1.38
2023-03-25T07:09:55.215Z,3.30
2023-03-25T07:12:23.276Z,3.60
2023-03-25T07:14:57.424Z,2.05
2023-03-25T07:17:27.048Z,1.85
2023-03-25T07:19:53.885Z,1.85
2023-03-25T07:22:20.768Z,3.05
2023-03-25T07:24:47.626Z,3.92
2023-03-25T07:27:16.670Z,3.97
2023-03-25T07:29:46.275Z,2.70
2023-03-25T07:32:15.675Z,3.55
2023-03-25T07:34:42.390Z,2.80
2023-03-25T07:37:11.602Z,2.95
2023-03-25T07:39:40.658Z,2.10
2023-03-25T07:42:07.678Z,4.22
2023-03-25T07:44:36.570Z,2.67
2023-03-25T07:47:08.030Z,2.60
2023-03-25T07:49:35.382Z,7.05
2023-03-25T07:52:04.492Z,4.05
2023-03-25T07:54:31.192Z,1.13
2023-03-25T07:57:00.465Z,1.77
2023-03-25T07:59:31.943Z,2.65
2023-03-25T08:01:58.865Z,1.00
2023-03-25T08:04:28.095Z,0.40
2023-03-25T08:06:54.940Z,0.55
2023-03-25T08:09:24.196Z,1.42
2023-03-25T08:11:51.464Z,1.77
2023-03-25T08:14:20.550Z,0.75
2023-03-25T08:16:47.233Z,0.67
2023-03-25T08:19:14.541Z,1.45
2023-03-25T08:21:41.322Z,0.57
2023-03-25T08:24:08.227Z,1.08
2023-03-25T08:26:35.967Z,1.95
2023-03-25T08:29:05.148Z,0.40
2023-03-25T08:31:33.120Z,0.50
2023-03-25T08:34:04.441Z,2.35
2023-03-25T08:36:33.791Z,1.25
2023-03-25T08:39:01.487Z,1.80
2023-03-25T08:41:28.258Z,2.40
2023-03-25T08:43:55.037Z,0.98
2023-03-25T08:46:21.837Z,2.35
2023-03-25T08:48:50.329Z,2.28
2023-03-25T08:51:17.729Z,1.48
2023-03-25T08:53:47.035Z,1.60
2023-03-25T08:56:13.838Z,2.20
2023-03-25T08:58:42.840Z,1.73
2023-03-25T09:01:12.070Z,1.50
2023-03-25T09:03:40.868Z,3.60
2023-03-25T09:06:09.123Z,2.10
2023-03-25T09:08:39.630Z,1.85
2023-03-25T09:11:06.524Z,3.10
2023-03-25T09:13:33.244Z,3.30
2023-03-25T09:15:59.981Z,6.70
2023-03-25T09:18:31.945Z,3.58
2023-03-25T09:21:00.275Z,3.63
2023-03-25T09:23:27.445Z,1.67
2023-03-25T09:25:54.475Z,2.15
2023-03-25T09:28:23.636Z,4.15
2023-03-25T09:30:50.643Z,4.38
2023-03-25T09:33:17.337Z,2.75
2023-03-25T09:35:44.395Z,2.72
2023-03-25T09:38:13.426Z,10.13
2023-03-25T09:40:44.425Z,4.10
2023-03-25T09:43:14.170Z,4.50
2023-03-25T09:45:47.254Z,6.53
2023-03-25T09:48:37.484Z,3.22
2023-03-25T09:51:10.788Z,3.92
2023-03-25T09:53:49.470Z,4.32
2023-03-25T09:56:28.695Z,4.25
2023-03-25T09:59:01.668Z,2.47
2023-03-25T10:01:41.516Z,7.18
2023-03-25T10:06:48.937Z,6.85
2023-03-25T10:09:31.250Z,5.38
2023-03-25T10:12:35.776Z,4.47
2023-03-25T10:15:38.893Z,6.38
2023-03-25T10:18:42.061Z,4.05
2023-03-25T10:21:23.742Z,5.10
2023-03-25T10:24:30.768Z,6.45
2023-03-25T10:27:24.056Z,9.75
2023-03-25T10:30:09.534Z,6.55
2023-03-25T10:32:53.473Z,6.32
2023-03-25T10:35:30.254Z,6.97
2023-03-25T10:38:14.495Z,5.20
2023-03-25T10:40:50.076Z,9.57
2023-03-25T10:43:41.640Z,6.90
2023-03-25T10:46:14.186Z,7.95
2023-03-25T10:48:43.148Z,4.13
2023-03-25T10:51:16.740Z,2.83
2023-03-25T10:53:50.067Z,6.43
2023-03-25T10:56:21.821Z,4.75
2023-03-25T10:58:54.468Z,6.93
2023-03-25T11:01:30.535Z,6.05
2023-03-25T11:04:00.653Z,5.68
2023-03-25T11:06:34.326Z,7.15
2023-03-25T11:09:23.846Z,3.78
2023-03-25T11:11:52.810Z,3.88
2023-03-25T11:14:29.028Z,11.55
2023-03-25T11:17:02.812Z,3.22
2023-03-25T11:19:39.170Z,6.80
2023-03-25T11:22:22.148Z,5.47
2023-03-25T11:24:57.755Z,6.75
2023-03-25T11:27:28.544Z,8.05
2023-03-25T11:30:16.976Z,3.33
2023-03-25T11:32:43.760Z,6.65
2023-03-25T11:35:22.003Z,4.95
2023-03-25T11:37:56.565Z,5.35
2023-03-25T11:40:23.754Z,4.28
2023-03-25T11:42:58.246Z,3.42
2023-03-25T11:45:39.894Z,4.07
2023-03-25T11:48:19.124Z,6.28
2023-03-25T11:50:58.108Z,7.15
2023-03-25T11:53:31.427Z,2.40
2023-03-25T11:56:06.738Z,6.28
2023-03-25T11:58:37.119Z,3.42
2023-03-25T12:01:20.050Z,3.75
2023-03-25T12:03:49.282Z,5.68
2023-03-25T12:06:25.958Z,3.25
2023-03-25T12:08:56.564Z,3.33
2023-03-25T12:11:36.570Z,3.15
2023-03-25T12:14:36.322Z,5.85
2023-03-25T12:20:02.448Z,1.88
2023-03-25T12:22:48.650Z,3.03
2023-03-25T12:25:36.108Z,2.63
2023-03-25T12:28:10.459Z,2.35
2023-03-25T12:30:53.875Z,2.47
2023-03-25T12:33:30.322Z,4.68
2023-03-25T12:36:16.429Z,4.88
2023-03-25T12:38:48.611Z,3.10
2023-03-25T12:41:25.279Z,5.45
2023-03-25T12:44:09.642Z,4.85
2023-03-25T12:46:45.369Z,4.30
2023-03-25T12:49:36.972Z,5.38
2023-03-25T12:52:16.236Z,4.13
2023-03-25T12:55:00.746Z,3.70
2023-03-25T12:57:56.011Z,5.55
2023-03-25T13:00:36.399Z,3.70
2023-03-25T13:03:34.492Z,5.43
2023-03-25T13:06:01.431Z,5.35
2023-03-25T13:08:42.423Z,6.10
2023-03-25T13:11:29.832Z,6.43
2023-03-25T13:14:02.000Z,4.47
2023-03-25T13:16:35.889Z,3.80
2023-03-25T13:19:10.207Z,2.40
2023-03-25T13:21:43.662Z,3.58
2023-03-25T13:24:36.578Z,6.60
2023-03-25T13:27:05.229Z,3.47
2023-03-25T13:29:39.342Z,5.25
2023-03-25T13:32:17.321Z,5.40
2023-03-25T13:34:57.486Z,4.95
2023-03-25T13:37:38.065Z,5.30
2023-03-25T13:40:13.565Z,3.60
2023-03-25T13:43:01.843Z,6.55
2023-03-25T13:45:44.520Z,4.32
2023-03-25T13:48:16.114Z,4.72
2023-03-25T13:50:43.135Z,6.95
2023-03-25T13:53:41.779Z,2.92
2023-03-25T13:56:20.144Z,3.88
2023-03-25T13:59:16.781Z,2.03
2023-03-25T14:01:44.075Z,5.22
2023-03-25T14:04:22.785Z,8.20
2023-03-25T14:06:59.833Z,3.97
2023-03-25T14:10:00.685Z,6.05
2023-03-25T14:12:45.093Z,3.67
2023-03-25T14:15:17.861Z,3.80
2023-03-25T14:17:50.328Z,3.95
2023-03-25T14:20:25.293Z,4.63
2023-03-25T14:23:14.179Z,4.15
2023-03-25T14:25:44.755Z,4.28
2023-03-25T14:28:21.365Z,5.07
2023-03-25T14:31:24.215Z,4.68
2023-03-25T14:34:00.244Z,4.05
2023-03-25T14:36:42.309Z,4.00
2023-03-25T14:39:32.112Z,5.35
2023-03-25T14:44:32.864Z,6.88
2023-03-25T14:47:20.263Z,2.53
2023-03-25T14:50:10.215Z,3.20
2023-03-25T14:52:46.705Z,6.93
2023-03-25T14:55:27.690Z,4.43
2023-03-25T14:58:23.678Z,3.40
2023-03-25T15:01:17.582Z,4.60
2023-03-25T15:03:45.823Z,2.90
2023-03-25T15:06:28.623Z,2.90
2023-03-25T15:08:57.905Z,2.92
2023-03-25T15:11:33.388Z,2.92
2023-03-25T15:14:03.905Z,2.45
2023-03-25T15:16:49.688Z,4.65
2023-03-25T15:19:18.522Z,6.25
2023-03-25T15:22:00.294Z,3.70
2023-03-25T15:24:34.384Z,9.13
2023-03-25T15:27:07.851Z,3.42
2023-03-25T15:29:34.456Z,6.30
2023-03-25T15:32:38.384Z,2.75
2023-03-25T15:35:13.231Z,3.15
2023-03-25T15:37:59.848Z,3.65
2023-03-25T15:40:49.697Z,5.60
2023-03-25T15:43:44.599Z,7.93
2023-03-25T15:46:31.325Z,6.88
2023-03-25T15:49:13.382Z,7.85
2023-03-25T15:52:13.306Z,4.65
2023-03-25T15:54:54.300Z,4.95
2023-03-25T15:57:31.987Z,4.57
2023-03-25T16:00:15.471Z,6.65
2023-03-25T16:02:53.381Z,8.65
2023-03-25T16:05:21.596Z,8.18
2023-03-25T16:07:48.968Z,8.02
2023-03-25T16:10:27.564Z,5.20
2023-03-25T16:12:54.468Z,5.60
2023-03-25T16:15:34.086Z,3.53
2023-03-25T16:18:04.442Z,3.97
2023-03-25T16:20:34.163Z,5.60
2023-03-25T16:23:03.349Z,5.47
2023-03-25T16:25:37.785Z,7.35
2023-03-25T16:28:07.561Z,5.30
2023-03-25T16:30:37.198Z,5.97
2023-03-25T16:33:07.813Z,4.30
2023-03-25T16:35:43.561Z,5.35
2023-03-25T16:38:25.534Z,5.93
2023-03-25T16:40:59.460Z,3.58
2023-03-25T16:43:27.525Z,7.93
2023-03-25T16:45:58.445Z,4.75
2023-03-25T16:48:35.896Z,2.80
2023-03-25T16:51:13.214Z,5.85
2023-03-25T16:53:49.000Z,7.22
2023-03-25T16:56:17.869Z,3.72
2023-03-25T16:59:01.433Z,3.58
2023-03-25T17:01:32.034Z,4.65
2023-03-25T17:04:19.510Z,4.60
2023-03-25T17:07:01.172Z,2.95
2023-03-25T17:09:34.781Z,5.53
2023-03-25T17:12:08.017Z,3.15
2023-03-25T17:14:38.975Z,5.13
2023-03-25T17:17:31.338Z,4.00
2023-03-25T17:20:08.174Z,6.38
2023-03-25T17:22:39.261Z,3.70
2023-03-25T17:25:32.259Z,4.85
2023-03-25T17:28:22.640Z,9.65
2023-03-25T17:30:49.430Z,6.80
2023-03-25T17:33:39.565Z,2.78
2023-03-25T17:36:11.395Z,2.85
2023-03-25T17:38:44.935Z,3.00
2023-03-25T17:41:13.351Z,6.05
2023-03-25T17:43:48.725Z,6.70
2023-03-25T17:46:22.038Z,4.90
2023-03-25T17:48:53.377Z,4.57
2023-03-25T17:51:21.357Z,5.45
2023-03-25T17:53:49.293Z,3.15
2023-03-25T17:56:21.016Z,4.15
2023-03-25T17:58:47.831Z,4.05
2023-03-25T18:01:16.940Z,5.78
2023-03-25T18:03:46.566Z,5.28
2023-03-25T18:06:13.791Z,6.07
2023-03-25T18:08:40.899Z,3.00
2023-03-25T18:11:10.418Z,9.32
2023-03-25T18:13:45.681Z,3.13
2023-03-25T18:16:16.222Z,5.28
2023-03-25T18:18:45.861Z,6.88
2023-03-25T18:21:16.849Z,4.20
2023-03-25T18:23:47.986Z,7.72
2023-03-25T18:26:17.039Z,4.10
2023-03-25T18:28:44.700Z,4.25
2023-03-25T18:31:17.242Z,4.13
2023-03-25T18:33:48.360Z,4.63
2023-03-25T18:36:15.811Z,5.82
2023-03-25T18:38:43.681Z,5.85
2023-03-25T18:41:17.448Z,8.32
2023-03-25T18:43:44.816Z,3.17
2023-03-25T18:46:13.981Z,4.95
2023-03-25T18:48:41.054Z,9.95
2023-03-25T18:51:10.624Z,3.72
2023-03-25T18:53:40.428Z,3.95
2023-03-25T18:56:20.602Z,3.91
2023-03-25T18:58:47.834Z,7.50
2023-03-25T19:01:20.535Z,7.05
2023-03-25T19:03:49.939Z,6.82
2023-03-25T19:06:17.430Z,6.55
2023-03-25T19:08:45.458Z,10.50
2023-03-25T19:11:20.802Z,3.97
2023-03-25T19:13:52.148Z,7.50
2023-03-25T19:18:47.479Z,6.28
2023-03-25T19:21:19.201Z,7.18
2023-03-25T19:23:47.161Z,3.75
2023-03-25T19:26:14.663Z,6.72
2023-03-25T19:28:41.638Z,7.80
2023-03-25T19:31:08.509Z,7.28
2023-03-25T19:33:35.275Z,6.95
2023-03-25T19:36:04.790Z,4.50
2023-03-25T19:38:34.006Z,6.03
2023-03-25T19:41:09.512Z,5.67
2023-03-25T19:43:36.811Z,6.97
2023-03-25T19:46:07.255Z,7.30
2023-03-25T19:48:35.017Z,7.05
2023-03-25T19:51:02.333Z,6.95
2023-03-25T19:53:29.598Z,4.47
2023-03-25T19:55:56.845Z,11.43
2023-03-25T19:58:24.620Z,10.18
2023-03-25T20:00:51.769Z,7.03
2023-03-25T20:03:22.591Z,5.15
2023-03-25T20:05:56.129Z,6.35
2023-03-25T20:08:25.692Z,5.35
2023-03-25T20:10:54.732Z,5.55
2023-03-25T20:13:21.989Z,4.47
2023-03-25T20:15:49.996Z,9.50
2023-03-25T20:18:17.271Z,5.85
2023-03-25T20:20:46.305Z,8.02
2023-03-25T20:23:15.694Z,7.47
2023-03-25T20:25:43.384Z,12.45
2023-03-25T20:28:10.236Z,6.50
2023-03-25T20:30:39.599Z,6.88
2023-03-25T20:33:10.771Z,5.03
2023-03-25T20:35:37.567Z,7.38
2023-03-25T20:38:04.388Z,6.95
2023-03-25T20:40:43.628Z,8.38
2023-03-25T20:43:14.864Z,10.48
2023-03-25T20:45:44.453Z,10.95
2023-03-25T20:48:11.332Z,6.35
2023-03-25T20:50:38.590Z,3.55
2023-03-25T20:53:05.830Z,6.25
2023-03-25T20:55:32.816Z,10.65
2023-03-25T20:58:01.823Z,6.57
2023-03-25T21:00:28.633Z,8.43
2023-03-25T21:02:55.469Z,6.10
2023-03-25T21:05:27.032Z,4.78
2023-03-25T21:07:56.074Z,5.43
2023-03-25T21:10:22.742Z,9.80
2023-03-25T21:12:50.040Z,8.93
2023-03-25T21:15:16.919Z,6.45
2023-03-25T21:17:43.972Z,9.98
2023-03-25T21:20:11.175Z,7.57
2023-03-25T21:22:43.478Z,8.18
2023-03-25T21:25:14.740Z,7.65
2023-03-25T21:27:42.378Z,8.98
2023-03-25T21:30:10.093Z,6.40
2023-03-25T21:32:40.052Z,10.25
2023-03-25T21:37:40.701Z,6.00
2023-03-25T21:40:11.961Z,7.53
2023-03-25T21:42:46.168Z,9.10
2023-03-25T21:45:15.871Z,11.98
2023-03-25T21:47:45.068Z,5.85
2023-03-25T21:50:15.429Z,11.70
2023-03-25T21:52:47.138Z,7.32
2023-03-25T21:55:17.681Z,8.98
2023-03-25T21:57:47.679Z,9.05
2023-03-25T22:00:17.247Z,4.60
2023-03-25T22:02:47.668Z,12.07
2023-03-25T22:05:16.208Z,6.18
2023-03-25T22:07:42.982Z,8.65
2023-03-25T22:10:11.008Z,12.52
2023-03-25T22:12:38.136Z,9.50
2023-03-25T22:15:05.528Z,4.32
2023-03-25T22:17:34.685Z,10.02
2023-03-25T22:20:01.752Z,5.13
2023-03-25T22:22:31.077Z,10.30
2023-03-25T22:24:57.852Z,6.53
2023-03-25T22:27:24.526Z,12.77
2023-03-25T22:29:51.445Z,10.63
2023-03-25T22:32:18.267Z,8.90
2023-03-25T22:34:45.100Z,9.45
2023-03-25T22:37:11.878Z,8.98
2023-03-25T22:39:43.320Z,10.45
2023-03-25T22:42:10.194Z,10.25
2023-03-25T22:44:39.044Z,6.78
2023-03-25T22:47:05.929Z,6.28
2023-03-25T22:49:32.668Z,6.53
2023-03-25T22:51:59.450Z,10.63
2023-03-25T22:54:26.229Z,6.78
2023-03-25T22:56:52.993Z,6.75
2023-03-25T22:59:19.811Z,9.05
2023-03-25T23:01:49.175Z,10.02
2023-03-25T23:04:16.116Z,10.23
2023-03-25T23:06:45.275Z,7.43
2023-03-25T23:09:35.860Z,9.48
2023-03-25T23:12:02.535Z,10.18
2023-03-25T23:14:31.591Z,10.43
2023-03-25T23:17:00.629Z,9.27
2023-03-25T23:19:27.378Z,10.77
2023-03-25T23:21:54.286Z,9.80
2023-03-25T23:24:21.047Z,9.43
2023-03-25T23:26:47.719Z,12.65
2023-03-25T23:29:16.802Z,12.57
2023-03-25T23:31:43.981Z,10.43
2023-03-25T23:34:14.029Z,8.07
2023-03-25T23:36:40.800Z,8.48
2023-03-25T23:39:10.349Z,11.68
2023-03-25T23:41:37.520Z,7.28
2023-03-25T23:44:04.977Z,7.72
2023-03-25T23:46:32.288Z,12.02
2023-03-25T23:49:07.942Z,8.70
2023-03-25T23:51:40.645Z,5.20
2023-03-25T23:54:10.592Z,10.98
2023-03-25T23:59:06.389Z,13.95
